Meishomaru — JD3044 — position and weather

sailwx.info

Track history (hours):
 
Tides and Currents Weather Stations Pressure Air Temp Water Temp Dewpoint Dewpoint Depression Visibility Wind Speed Wind Dir Waves Ship Positions

Meishomaru

Last reported at 2015-Sep-05 13:28 UTC. Time now 2015-Sep-05 14:19 UTC.
Position N 35°29' E 139°56'.

Length 68 m; draft 2.6 m.

Type: Tanker. MMSI: 431001216.

Date/timePositionNaut miles runAvg speedWind from/ knotsBaromVisibWave heightAir tempDewpointWater temp
2015-Sep-05 13:28N 35°29' E 139°56'0 0.0
2015-Sep-05 12:31N 35°29' E 139°56'0 0.0
2015-Sep-05 11:22N 35°29' E 139°56'0 0.0
2015-Sep-05 10:31N 35°29' E 139°56'0 0.0
2015-Sep-05 09:31N 35°29' E 139°56'0 0.0
2015-Sep-05 08:22N 35°29' E 139°56'0 0.0
2015-Sep-05 07:22N 35°29' E 139°56'0 0.0
2015-Sep-05 06:31N 35°29' E 139°56'0 0.0
2015-Sep-05 05:28N 35°29' E 139°56'5 5.8
2015-Sep-05 04:33N 35°27' E 139°50'1110.5
2015-Sep-05 03:33N 35°17' E 139°46'1211.5
2015-Sep-05 02:33N 35°05' E 139°46'17 7.3
2015-Sep-05 00:15N 34°56' E 140°03'811.6
2015-Sep-04 23:33N 35°01' E 140°12'2611.3
2015-Sep-04 21:17N 35°18' E 140°35'1012.7
2015-Sep-04 20:32N 35°26' E 140°42'1212.7
2015-Sep-04 19:33N 35°36' E 140°51'1211.6
2015-Sep-04 18:33N 35°47' E 140°55'1212.3
2015-Sep-04 17:33N 35°59' E 140°57'1312.8
2015-Sep-04 16:33N 36°12' E 140°59'31 1.1
2015-Sep-03 12:32N 35°41' E 140°55'1512.3
2015-Sep-03 11:21N 35°29' E 140°45'1312.2
2015-Sep-03 10:15N 35°18' E 140°35'2313.5
2015-Sep-03 08:31N 35°02' E 140°14'1613.3
2015-Sep-03 07:18N 34°53' E 139°58'810.7
2015-Sep-03 06:31N 34°53' E 139°48'1010.6
2015-Sep-03 05:33N 35°03' E 139°44'1212.2
2015-Sep-03 04:33N 35°15' E 139°46'1211.6
2015-Sep-03 03:34N 35°25' E 139°39'0 0.0
2015-Sep-03 02:28N 35°25' E 139°39'0 0.0
2015-Sep-03 01:31N 35°25' E 139°39'0 0.0
2015-Sep-03 00:31N 35°25' E 139°39'0 0.0
2015-Sep-02 23:31N 35°25' E 139°39'2 2.3
2015-Sep-02 22:32N 35°23' E 139°40'0 0.0
2015-Sep-02 21:32N 35°23' E 139°40'0 0.0
2015-Sep-02 20:32N 35°23' E 139°40'0 0.1
2015-Sep-02 19:32N 35°23' E 139°40'0 0.0
2015-Sep-02 18:32N 35°23' E 139°40'0 0.0
2015-Sep-02 17:32N 35°23' E 139°40'0 0.0
2015-Sep-02 16:32N 35°23' E 139°40'0 0.1
2015-Sep-02 15:32N 35°23' E 139°40'0 0.0
2015-Sep-02 14:32N 35°23' E 139°40'0 0.0
2015-Sep-02 13:29N 35°23' E 139°40'0 0.0
2015-Sep-02 12:34N 35°23' E 139°40'0 0.0
2015-Sep-02 11:33N 35°23' E 139°40'0 0.0
2015-Sep-02 10:33N 35°23' E 139°40'0 0.0
2015-Sep-02 09:34N 35°23' E 139°40'0 0.0
2015-Sep-02 08:33N 35°23' E 139°40'0 0.0
2015-Sep-02 07:32N 35°23' E 139°40'0 0.0
2015-Sep-02 06:32N 35°23' E 139°40'0 0.0
2015-Sep-02 05:32N 35°23' E 139°40'0 0.0
2015-Sep-02 04:32N 35°23' E 139°40'0 0.0
2015-Sep-02 03:32N 35°23' E 139°40'0 0.2
2015-Sep-02 02:33N 35°23' E 139°41'9 8.9
2015-Sep-02 01:33N 35°31' E 139°45'0 0.0
2015-Sep-02 00:22N 35°31' E 139°45'0 0.0
2015-Sep-01 23:28N 35°31' E 139°45'0 0.1
2015-Sep-01 22:33N 35°31' E 139°45'4 3.7
2015-Sep-01 21:33N 35°29' E 139°49'0 0.0
2015-Sep-01 20:33N 35°29' E 139°49'0 0.0
2015-Sep-01 19:33N 35°29' E 139°49'0 0.0
2015-Sep-01 18:33N 35°29' E 139°49'0 0.0
2015-Sep-01 17:33N 35°29' E 139°49'0 0.0
2015-Sep-01 16:33N 35°29' E 139°49'0 0.0
2015-Sep-01 15:33N 35°29' E 139°49'0 0.0
2015-Sep-01 14:33N 35°29' E 139°49'0 0.0
2015-Sep-01 13:33N 35°29' E 139°49'0 0.0
2015-Sep-01 12:33N 35°29' E 139°49'0 0.0
2015-Sep-01 11:33N 35°29' E 139°49'0 0.0
2015-Sep-01 10:33N 35°29' E 139°49'0 0.0
2015-Sep-01 09:33N 35°29' E 139°49'0 0.0
2015-Sep-01 08:33N 35°29' E 139°49'5 4.9
2015-Sep-01 07:33N 35°26' E 139°44'5 4.7
2015-Sep-01 06:32N 35°25' E 139°39'0 0.0
2015-Sep-01 05:26N 35°25' E 139°39'0 0.0
2015-Sep-01 04:32N 35°25' E 139°39'0 0.0
2015-Sep-01 03:32N 35°25' E 139°39'1 0.6
2015-Sep-01 02:33N 35°24' E 139°39'8 8.3
2015-Sep-01 01:33N 35°31' E 139°45'0 0.0
2015-Sep-01 00:31N 35°31' E 139°45'0 0.0
2015-Aug-31 23:31N 35°31' E 139°45'0 0.1
2015-Aug-31 22:33N 35°31' E 139°45'4 3.8
2015-Aug-31 21:33N 35°29' E 139°49'0 0.0
2015-Aug-31 20:33N 35°29' E 139°49'0 0.0
2015-Aug-31 19:33N 35°29' E 139°49'0 0.0
2015-Aug-31 18:33N 35°29' E 139°49'0 0.0
2015-Aug-31 17:33N 35°29' E 139°49'0 0.0
2015-Aug-31 16:33N 35°29' E 139°49'0 0.0
2015-Aug-31 15:33N 35°29' E 139°49'0 0.1
2015-Aug-31 14:33N 35°29' E 139°49'0 0.0
2015-Aug-31 13:33N 35°29' E 139°49'0 0.0
2015-Aug-31 12:33N 35°29' E 139°49'0 0.0
2015-Aug-31 11:33N 35°29' E 139°49'0 0.0
2015-Aug-31 10:33N 35°29' E 139°49'0 0.0
2015-Aug-31 09:30N 35°29' E 139°49'0 0.1
2015-Aug-31 08:30N 35°29' E 139°49'7 7.1
2015-Aug-31 07:33N 35°25' E 139°43'3 3.0
2015-Aug-31 06:31N 35°25' E 139°39'0 0.0
2015-Aug-31 05:31N 35°25' E 139°39'0 0.0
2015-Aug-31 04:31N 35°25' E 139°39'0 0.0
2015-Aug-31 03:28N 35°25' E 139°39'0 0.5
2015-Aug-31 02:33N 35°24' E 139°39'8 8.2
2015-Aug-31 01:32N 35°31' E 139°45'0 0.0
2015-Aug-31 00:32N 35°31' E 139°45'0 0.0
2015-Aug-30 23:32N 35°31' E 139°45'0 0.1
2015-Aug-30 22:33N 35°31' E 139°45'4 3.7
2015-Aug-30 21:32N 35°29' E 139°49'0 0.0
2015-Aug-30 20:29N 35°29' E 139°49'0 0.0
2015-Aug-30 19:32N 35°29' E 139°49'0 0.0
2015-Aug-30 18:32N 35°29' E 139°49'6 6.5
2015-Aug-30 17:33N 35°24' E 139°46'1111.2
2015-Aug-30 16:33N 35°12' E 139°47'24710.1
2015-Aug-29 16:11N 34°03' E 134°59'711.6
2015-Aug-29 15:33N 34°10' E 134°59'5 0.1
2015-Aug-28 07:25N 34°15' E 134°60'24110.0
2015-Aug-27 07:13N 35°11' E 139°45'711.1
2015-Aug-27 06:33N 35°19' E 139°44'1010.5
2015-Aug-27 05:34N 35°28' E 139°49'1211.9
2015-Aug-27 04:33N 35°32' E 140°03'1 0.6
2015-Aug-27 03:33N 35°32' E 140°03'0 0.0
2015-Aug-27 02:33N 35°32' E 140°03'0 0.0
2015-Aug-27 01:30N 35°32' E 140°03'0 0.0
2015-Aug-27 00:27N 35°32' E 140°03'0 0.3
2015-Aug-26 23:34N 35°32' E 140°03'7 6.7
2015-Aug-26 22:34N 35°29' E 139°56'0 0.0
2015-Aug-26 21:33N 35°29' E 139°56'0 0.0
2015-Aug-26 20:33N 35°29' E 139°56'0 0.0
2015-Aug-26 19:30N 35°29' E 139°56'0 0.0
2015-Aug-26 18:33N 35°29' E 139°56'2 2.5
2015-Aug-26 17:33N 35°28' E 139°53'1111.2
2015-Aug-26 16:33N 35°20' E 139°44'1111.1
2015-Aug-26 15:33N 35°09' E 139°47'1111.3
2015-Aug-26 14:33N 34°57' E 139°44'  
Track history (hours):
 
Tides and Currents Weather Stations Pressure Air Temp Water Temp Dewpoint Dewpoint Depression Visibility Wind Speed Wind Dir Waves Ship Positions

Meishomaru

Last reported at 2015-Sep-05 13:28 UTC. Time now 2015-Sep-05 14:19 UTC.
Position N 35°29' E 139°56'.

Length 68 m; draft 2.6 m.

Type: Tanker. MMSI: 431001216.

Date/timePositionNaut miles runAvg speedWind from/ knotsBaromVisibWave heightAir tempDewpointWater temp
2015-Sep-05 13:28N 35°29' E 139°56'0 0.0
2015-Sep-05 12:31N 35°29' E 139°56'0 0.0
2015-Sep-05 11:22N 35°29' E 139°56'0 0.0
2015-Sep-05 10:31N 35°29' E 139°56'0 0.0
2015-Sep-05 09:31N 35°29' E 139°56'0 0.0
2015-Sep-05 08:22N 35°29' E 139°56'0 0.0
2015-Sep-05 07:22N 35°29' E 139°56'0 0.0
2015-Sep-05 06:31N 35°29' E 139°56'0 0.0
2015-Sep-05 05:28N 35°29' E 139°56'5 5.8
2015-Sep-05 04:33N 35°27' E 139°50'1110.5
2015-Sep-05 03:33N 35°17' E 139°46'1211.5
2015-Sep-05 02:33N 35°05' E 139°46'17 7.3
2015-Sep-05 00:15N 34°56' E 140°03'811.6
2015-Sep-04 23:33N 35°01' E 140°12'2611.3
2015-Sep-04 21:17N 35°18' E 140°35'1012.7
2015-Sep-04 20:32N 35°26' E 140°42'1212.7
2015-Sep-04 19:33N 35°36' E 140°51'1211.6
2015-Sep-04 18:33N 35°47' E 140°55'1212.3
2015-Sep-04 17:33N 35°59' E 140°57'1312.8
2015-Sep-04 16:33N 36°12' E 140°59'31 1.1
2015-Sep-03 12:32N 35°41' E 140°55'1512.3
2015-Sep-03 11:21N 35°29' E 140°45'1312.2
2015-Sep-03 10:15N 35°18' E 140°35'2313.5
2015-Sep-03 08:31N 35°02' E 140°14'1613.3
2015-Sep-03 07:18N 34°53' E 139°58'810.7
2015-Sep-03 06:31N 34°53' E 139°48'1010.6
2015-Sep-03 05:33N 35°03' E 139°44'1212.2
2015-Sep-03 04:33N 35°15' E 139°46'1211.6
2015-Sep-03 03:34N 35°25' E 139°39'0 0.0
2015-Sep-03 02:28N 35°25' E 139°39'0 0.0
2015-Sep-03 01:31N 35°25' E 139°39'0 0.0
2015-Sep-03 00:31N 35°25' E 139°39'0 0.0
2015-Sep-02 23:31N 35°25' E 139°39'2 2.3
2015-Sep-02 22:32N 35°23' E 139°40'0 0.0
2015-Sep-02 21:32N 35°23' E 139°40'0 0.0
2015-Sep-02 20:32N 35°23' E 139°40'0 0.1
2015-Sep-02 19:32N 35°23' E 139°40'0 0.0
2015-Sep-02 18:32N 35°23' E 139°40'0 0.0
2015-Sep-02 17:32N 35°23' E 139°40'0 0.0
2015-Sep-02 16:32N 35°23' E 139°40'0 0.1
2015-Sep-02 15:32N 35°23' E 139°40'0 0.0
2015-Sep-02 14:32N 35°23' E 139°40'0 0.0
2015-Sep-02 13:29N 35°23' E 139°40'0 0.0
2015-Sep-02 12:34N 35°23' E 139°40'0 0.0
2015-Sep-02 11:33N 35°23' E 139°40'0 0.0
2015-Sep-02 10:33N 35°23' E 139°40'0 0.0
2015-Sep-02 09:34N 35°23' E 139°40'0 0.0
2015-Sep-02 08:33N 35°23' E 139°40'0 0.0
2015-Sep-02 07:32N 35°23' E 139°40'0 0.0
2015-Sep-02 06:32N 35°23' E 139°40'0 0.0
2015-Sep-02 05:32N 35°23' E 139°40'0 0.0
2015-Sep-02 04:32N 35°23' E 139°40'0 0.0
2015-Sep-02 03:32N 35°23' E 139°40'0 0.2
2015-Sep-02 02:33N 35°23' E 139°41'9 8.9
2015-Sep-02 01:33N 35°31' E 139°45'0 0.0
2015-Sep-02 00:22N 35°31' E 139°45'0 0.0
2015-Sep-01 23:28N 35°31' E 139°45'0 0.1
2015-Sep-01 22:33N 35°31' E 139°45'4 3.7
2015-Sep-01 21:33N 35°29' E 139°49'0 0.0
2015-Sep-01 20:33N 35°29' E 139°49'0 0.0
2015-Sep-01 19:33N 35°29' E 139°49'0 0.0
2015-Sep-01 18:33N 35°29' E 139°49'0 0.0
2015-Sep-01 17:33N 35°29' E 139°49'0 0.0
2015-Sep-01 16:33N 35°29' E 139°49'0 0.0
2015-Sep-01 15:33N 35°29' E 139°49'0 0.0
2015-Sep-01 14:33N 35°29' E 139°49'0 0.0
2015-Sep-01 13:33N 35°29' E 139°49'0 0.0
2015-Sep-01 12:33N 35°29' E 139°49'0 0.0
2015-Sep-01 11:33N 35°29' E 139°49'0 0.0
2015-Sep-01 10:33N 35°29' E 139°49'0 0.0
2015-Sep-01 09:33N 35°29' E 139°49'0 0.0
2015-Sep-01 08:33N 35°29' E 139°49'5 4.9
2015-Sep-01 07:33N 35°26' E 139°44'5 4.7
2015-Sep-01 06:32N 35°25' E 139°39'0 0.0
2015-Sep-01 05:26N 35°25' E 139°39'0 0.0
2015-Sep-01 04:32N 35°25' E 139°39'0 0.0
2015-Sep-01 03:32N 35°25' E 139°39'1 0.6
2015-Sep-01 02:33N 35°24' E 139°39'8 8.3
2015-Sep-01 01:33N 35°31' E 139°45'0 0.0
2015-Sep-01 00:31N 35°31' E 139°45'0 0.0
2015-Aug-31 23:31N 35°31' E 139°45'0 0.1
2015-Aug-31 22:33N 35°31' E 139°45'4 3.8
2015-Aug-31 21:33N 35°29' E 139°49'0 0.0
2015-Aug-31 20:33N 35°29' E 139°49'0 0.0
2015-Aug-31 19:33N 35°29' E 139°49'0 0.0
2015-Aug-31 18:33N 35°29' E 139°49'0 0.0
2015-Aug-31 17:33N 35°29' E 139°49'0 0.0
2015-Aug-31 16:33N 35°29' E 139°49'0 0.0
2015-Aug-31 15:33N 35°29' E 139°49'0 0.1
2015-Aug-31 14:33N 35°29' E 139°49'0 0.0
2015-Aug-31 13:33N 35°29' E 139°49'0 0.0
2015-Aug-31 12:33N 35°29' E 139°49'0 0.0
2015-Aug-31 11:33N 35°29' E 139°49'0 0.0
2015-Aug-31 10:33N 35°29' E 139°49'0 0.0
2015-Aug-31 09:30N 35°29' E 139°49'0 0.1
2015-Aug-31 08:30N 35°29' E 139°49'7 7.1
2015-Aug-31 07:33N 35°25' E 139°43'3 3.0
2015-Aug-31 06:31N 35°25' E 139°39'0 0.0
2015-Aug-31 05:31N 35°25' E 139°39'0 0.0
2015-Aug-31 04:31N 35°25' E 139°39'0 0.0
2015-Aug-31 03:28N 35°25' E 139°39'0 0.5
2015-Aug-31 02:33N 35°24' E 139°39'8 8.2
2015-Aug-31 01:32N 35°31' E 139°45'0 0.0
2015-Aug-31 00:32N 35°31' E 139°45'0 0.0
2015-Aug-30 23:32N 35°31' E 139°45'0 0.1
2015-Aug-30 22:33N 35°31' E 139°45'4 3.7
2015-Aug-30 21:32N 35°29' E 139°49'0 0.0
2015-Aug-30 20:29N 35°29' E 139°49'0 0.0
2015-Aug-30 19:32N 35°29' E 139°49'0 0.0
2015-Aug-30 18:32N 35°29' E 139°49'6 6.5
2015-Aug-30 17:33N 35°24' E 139°46'1111.2
2015-Aug-30 16:33N 35°12' E 139°47'24710.1
2015-Aug-29 16:11N 34°03' E 134°59'711.6
2015-Aug-29 15:33N 34°10' E 134°59'5 0.1
2015-Aug-28 07:25N 34°15' E 134°60'24110.0
2015-Aug-27 07:13N 35°11' E 139°45'711.1
2015-Aug-27 06:33N 35°19' E 139°44'1010.5
2015-Aug-27 05:34N 35°28' E 139°49'1211.9
2015-Aug-27 04:33N 35°32' E 140°03'1 0.6
2015-Aug-27 03:33N 35°32' E 140°03'0 0.0
2015-Aug-27 02:33N 35°32' E 140°03'0 0.0
2015-Aug-27 01:30N 35°32' E 140°03'0 0.0
2015-Aug-27 00:27N 35°32' E 140°03'0 0.3
2015-Aug-26 23:34N 35°32' E 140°03'7 6.7
2015-Aug-26 22:34N 35°29' E 139°56'0 0.0
2015-Aug-26 21:33N 35°29' E 139°56'0 0.0
2015-Aug-26 20:33N 35°29' E 139°56'0 0.0
2015-Aug-26 19:30N 35°29' E 139°56'0 0.0
2015-Aug-26 18:33N 35°29' E 139°56'2 2.5
2015-Aug-26 17:33N 35°28' E 139°53'1111.2
2015-Aug-26 16:33N 35°20' E 139°44'1111.1
2015-Aug-26 15:33N 35°09' E 139°47'1111.3
2015-Aug-26 14:33N 34°57' E 139°44'  

Dump ship's entire track history